Time;durP1;ratioP1;P1;durP2;ratioP2;P2;SDS_P1;SDS_P2;PMS_P1;PMS_P2;Temp;Humidity;BMP_temperature;BMP_pressure;BME280_temperature;BME280_humidity;BME280_pressure;Samples;Min_cycle;Max_cycle;Signal;HPM_P1;HPM_P2
2024/04/22 00:00:51;;;;;;;0.00;0.00;;;1.60;99.90;;;;;;5392090;26;20032;-76
2024/04/22 00:03:17;;;;;;;0.25;0.20;;;1.60;99.90;;;;;;5392776;26;20064;-80
2024/04/22 00:05:52;;;;;;;0.70;0.70;;;1.50;99.90;;;;;;5393343;26;20035;-77
2024/04/22 00:08:19;;;;;;;0.20;0.20;;;1.50;99.90;;;;;;5395777;26;20028;-80
2024/04/22 00:10:45;;;;;;;0.98;0.88;;;1.50;99.90;;;;;;5397570;26;20031;-76
2024/04/22 00:13:11;;;;;;;0.73;0.73;;;1.40;99.90;;;;;;5367929;26;20513;-76
2024/04/22 00:15:37;;;;;;;0.20;0.20;;;1.40;99.90;;;;;;5393404;26;20044;-77
2024/04/22 00:18:03;;;;;;;0.68;0.68;;;1.40;99.90;;;;;;5393866;26;20445;-76
2024/04/22 00:20:29;;;;;;;0.05;0.05;;;1.40;99.90;;;;;;5389477;26;20370;-77
2024/04/22 00:22:55;;;;;;;0.10;0.10;;;1.40;99.90;;;;;;5393103;26;20032;-76
2024/04/22 00:25:22;;;;;;;0.57;0.57;;;1.30;99.90;;;;;;5388198;26;20036;-80
2024/04/22 00:27:48;;;;;;;2.00;0.45;;;1.30;99.90;;;;;;5395246;26;20046;-76
2024/04/22 00:30:14;;;;;;;0.20;0.20;;;1.30;99.90;;;;;;5390003;26;20040;-76
2024/04/22 00:32:40;;;;;;;1.55;0.85;;;1.20;99.90;;;;;;5392496;26;20055;-76
2024/04/22 00:35:07;;;;;;;0.50;0.50;;;1.20;99.90;;;;;;5389073;26;20040;-76
2024/04/22 00:37:33;;;;;;;0.15;0.10;;;1.20;99.90;;;;;;5384512;26;20039;-75
2024/04/22 00:39:59;;;;;;;3.60;0.47;;;1.20;99.90;;;;;;5391189;26;20035;-76
2024/04/22 00:42:25;;;;;;;0.10;0.10;;;1.10;99.90;;;;;;5389719;26;20035;-76
2024/04/22 00:44:51;;;;;;;0.03;0.03;;;1.10;99.90;;;;;;5391930;26;20035;-77
2024/04/22 00:47:17;;;;;;;0.10;0.10;;;1.10;99.90;;;;;;5392529;26;20036;-76
2024/04/22 00:49:44;;;;;;;0.57;0.57;;;1.10;99.90;;;;;;5394197;26;20445;-76
2024/04/22 00:52:11;;;;;;;0.30;0.30;;;1.00;99.90;;;;;;5394335;26;20031;-77
2024/04/22 00:54:37;;;;;;;1.63;1.40;;;1.00;99.90;;;;;;5374194;26;20036;-76
2024/04/22 00:57:03;;;;;;;0.00;0.00;;;0.90;99.90;;;;;;5379997;26;20036;-76
2024/04/22 00:59:30;;;;;;;0.35;0.35;;;0.90;99.90;;;;;;5399612;26;20060;-76
2024/04/22 01:01:56;;;;;;;0.22;0.22;;;0.80;1.00;;;;;;5395677;26;20036;-76
2024/04/22 01:04:22;;;;;;;1.75;1.17;;;0.70;1.00;;;;;;5389621;26;20057;-80
2024/04/22 01:06:48;;;;;;;1.10;0.77;;;0.70;1.00;;;;;;5392713;26;20040;-76
2024/04/22 01:09:14;;;;;;;0.43;0.32;;;0.60;1.00;;;;;;5390880;26;20387;-77
2024/04/22 01:11:41;;;;;;;0.47;0.25;;;0.60;1.00;;;;;;5389524;26;20051;-76
2024/04/22 01:14:07;;;;;;;0.20;0.20;;;0.50;1.00;;;;;;5390806;26;20035;-76
2024/04/22 01:16:33;;;;;;;4.40;0.93;;;0.50;1.00;;;;;;5353968;26;20040;-76
2024/04/22 01:19:00;;;;;;;0.40;0.40;;;0.50;1.00;;;;;;5394213;26;20036;-76
2024/04/22 01:21:28;;;;;;;0.28;0.28;;;0.40;1.00;;;;;;5389572;26;20035;-77
2024/04/22 01:23:56;;;;;;;0.10;0.10;;;0.40;1.00;;;;;;5396600;26;20059;-76
2024/04/22 01:26:25;;;;;;;0.32;0.32;;;0.40;1.00;;;;;;5392000;26;20040;-79
2024/04/22 01:28:51;;;;;;;0.30;0.30;;;0.30;1.00;;;;;;5389817;26;20047;-76
2024/04/22 01:31:18;;;;;;;0.10;0.10;;;0.30;1.00;;;;;;5389945;26;20044;-76
2024/04/22 01:33:44;;;;;;;0.35;0.20;;;0.30;1.00;;;;;;5387418;26;20032;-76
2024/04/22 01:36:10;;;;;;;0.57;0.43;;;0.30;1.00;;;;;;5393022;26;20036;-76
2024/04/22 01:38:36;;;;;;;0.10;0.10;;;0.20;1.00;;;;;;5389757;26;20040;-75
2024/04/22 01:41:02;;;;;;;1.00;0.90;;;0.10;1.00;;;;;;5391536;26;20044;-76
2024/04/22 01:43:28;;;;;;;0.38;0.38;;;0.10;1.00;;;;;;5385229;26;20388;-77
2024/04/22 01:45:55;;;;;;;0.40;0.40;;;0.00;1.00;;;;;;5392678;26;20031;-76
2024/04/22 01:48:21;;;;;;;0.10;0.10;;;-0.10;1.00;;;;;;5390928;26;20036;-79
2024/04/22 01:50:47;;;;;;;0.20;0.20;;;-0.10;1.00;;;;;;5394807;26;20028;-76
2024/04/22 01:53:13;;;;;;;0.63;0.63;;;-0.20;1.00;;;;;;5396469;26;20032;-78
2024/04/22 01:55:40;;;;;;;0.05;0.05;;;-0.20;1.00;;;;;;5394306;26;20473;-76
2024/04/22 01:58:06;;;;;;;1.70;0.80;;;-0.20;1.00;;;;;;5377946;26;20028;-76
2024/04/22 02:00:32;;;;;;;0.00;0.00;;;-0.30;1.00;;;;;;5395761;26;20399;-76
2024/04/22 02:02:58;;;;;;;0.20;0.20;;;-0.30;1.00;;;;;;5392847;26;20477;-76
2024/04/22 02:05:24;;;;;;;0.00;0.00;;;-0.40;7.70;;;;;;5390330;26;20037;-80
2024/04/22 02:07:51;;;;;;;0.00;0.00;;;-0.40;21.00;;;;;;5393764;26;20040;-76
2024/04/22 02:10:17;;;;;;;0.00;0.00;;;-0.40;27.00;;;;;;5392689;26;20028;-76
2024/04/22 02:12:43;;;;;;;0.10;0.10;;;-0.40;32.20;;;;;;5395604;26;20044;-76
2024/04/22 02:15:09;;;;;;;0.55;0.50;;;-0.40;36.10;;;;;;5384649;26;20033;-76
2024/04/22 02:17:35;;;;;;;0.10;0.10;;;-0.40;28.20;;;;;;5386418;26;20059;-75
2024/04/22 02:20:01;;;;;;;2.38;0.63;;;-0.40;20.90;;;;;;5392683;26;20035;-75
2024/04/22 02:22:27;;;;;;;1.23;0.95;;;-0.30;20.20;;;;;;5369573;26;20027;-76
2024/04/22 02:24:54;;;;;;;0.13;0.13;;;-0.30;24.20;;;;;;5367634;26;20032;-76
2024/04/22 02:27:20;;;;;;;1.48;0.77;;;-0.40;22.30;;;;;;5375779;26;20144;-76
2024/04/22 02:29:46;;;;;;;0.00;0.00;;;-0.40;15.50;;;;;;5390633;26;20868;-75
2024/04/22 02:32:12;;;;;;;0.30;0.30;;;-0.30;31.90;;;;;;5399381;26;20096;-76
2024/04/22 02:34:38;;;;;;;0.32;0.10;;;-0.40;28.90;;;;;;5394540;26;20151;-76
2024/04/22 02:37:04;;;;;;;0.70;0.70;;;-0.50;29.70;;;;;;5392010;26;20385;-76
2024/04/22 02:39:31;;;;;;;0.52;0.52;;;-0.50;36.30;;;;;;5399787;26;20035;-76
2024/04/22 02:41:57;;;;;;;0.57;0.57;;;-0.60;44.40;;;;;;5391818;26;20508;-76
2024/04/22 02:44:23;;;;;;;0.00;0.00;;;-0.60;50.30;;;;;;5369586;26;20372;-79
2024/04/22 02:46:49;;;;;;;3.13;1.25;;;-0.50;62.10;;;;;;5393714;26;20024;-76
2024/04/22 02:49:15;;;;;;;0.10;0.10;;;-0.50;46.30;;;;;;5397623;26;20044;-76
2024/04/22 02:51:41;;;;;;;0.40;0.40;;;-0.40;31.90;;;;;;5392142;26;20037;-76
2024/04/22 02:54:08;;;;;;;0.00;0.00;;;-0.40;24.20;;;;;;5388867;26;20036;-75
2024/04/22 02:56:34;;;;;;;0.00;0.00;;;-0.40;16.50;;;;;;5392355;26;20039;-76
2024/04/22 02:59:00;;;;;;;1.52;0.80;;;-0.40;12.80;;;;;;5391492;26;20072;-76
2024/04/22 03:01:26;;;;;;;0.28;0.28;;;-0.40;7.90;;;;;;5397902;26;20036;-80
2024/04/22 03:03:52;;;;;;;2.75;2.15;;;-0.40;1.00;;;;;;5395116;26;20036;-76
2024/04/22 03:06:18;;;;;;;0.30;0.25;;;-0.50;1.00;;;;;;5388484;26;20035;-76
2024/04/22 03:08:44;;;;;;;0.45;0.45;;;-0.50;1.50;;;;;;5356306;26;20043;-76
2024/04/22 03:11:11;;;;;;;0.30;0.30;;;-0.50;2.50;;;;;;5393491;26;20373;-76
2024/04/22 03:13:37;;;;;;;0.08;0.08;;;-0.50;6.80;;;;;;5392930;26;20047;-76
2024/04/22 03:16:03;;;;;;;0.10;0.10;;;-0.50;8.00;;;;;;5394699;26;20031;-76
2024/04/22 03:18:29;;;;;;;0.00;0.00;;;-0.50;13.20;;;;;;5381015;26;20373;-76
2024/04/22 03:20:55;;;;;;;1.65;0.68;;;-0.60;13.30;;;;;;5403462;26;20040;-76
2024/04/22 03:23:22;;;;;;;0.60;0.60;;;-0.60;23.20;;;;;;5392523;26;20054;-77
2024/04/22 03:25:48;;;;;;;0.65;0.65;;;-0.60;29.10;;;;;;5393053;26;20035;-77
2024/04/22 03:28:14;;;;;;;0.10;0.10;;;-0.70;36.50;;;;;;5394943;26;20047;-76
2024/04/22 03:30:40;;;;;;;0.10;0.10;;;-0.70;51.00;;;;;;5386854;26;20040;-75
2024/04/22 03:33:06;;;;;;;0.32;0.32;;;-0.70;56.80;;;;;;5390246;26;20036;-76
2024/04/22 03:35:33;;;;;;;0.38;0.38;;;-0.70;57.20;;;;;;5392982;26;20044;-75
2024/04/22 03:38:00;;;;;;;0.10;0.10;;;-0.70;54.90;;;;;;5393530;26;20384;-75
2024/04/22 03:40:26;;;;;;;0.00;0.00;;;-0.60;61.30;;;;;;5403091;26;20100;-79
2024/04/22 03:42:52;;;;;;;0.20;0.20;;;-0.60;53.80;;;;;;5392800;26;20036;-76
2024/04/22 03:45:18;;;;;;;0.45;0.45;;;-0.70;47.40;;;;;;5331034;26;20027;-76
2024/04/22 03:50:29;;;;;;;2.70;1.52;;;-0.70;46.60;;;;;;5392314;26;20040;-76
2024/04/22 03:52:55;;;;;;;0.60;0.35;;;-0.70;43.70;;;;;;5361876;26;20032;-77
2024/04/22 03:55:22;;;;;;;2.20;1.25;;;-0.60;34.90;;;;;;5395780;26;20031;-76
2024/04/22 03:57:48;;;;;;;0.17;0.17;;;-0.50;14.80;;;;;;5391551;26;20047;-74
2024/04/22 04:00:14;;;;;;;0.43;0.43;;;-0.50;1.00;;;;;;5397012;26;20045;-76
2024/04/22 04:02:40;;;;;;;0.00;0.00;;;-0.50;1.00;;;;;;5392891;26;20044;-75
2024/04/22 04:05:06;;;;;;;0.52;0.52;;;-0.50;1.00;;;;;;5386479;26;20010;-76
2024/04/22 04:07:32;;;;;;;0.45;0.45;;;-0.50;1.00;;;;;;5373517;26;20008;-82
2024/04/22 04:09:58;;;;;;;0.00;0.00;;;-0.50;1.00;;;;;;5392327;26;20040;-76
2024/04/22 04:12:25;;;;;;;0.10;0.10;;;-0.50;1.00;;;;;;5392394;26;20028;-82
2024/04/22 04:14:51;;;;;;;3.30;0.30;;;-0.50;1.00;;;;;;5396007;26;20040;-74
2024/04/22 04:17:17;;;;;;;0.80;0.80;;;-0.60;1.00;;;;;;5394259;26;20063;-78
2024/04/22 04:19:43;;;;;;;0.00;0.00;;;-0.60;1.00;;;;;;5392199;26;20032;-75
2024/04/22 04:22:09;;;;;;;0.00;0.00;;;-0.60;1.00;;;;;;5392623;26;20028;-75
2024/04/22 04:24:35;;;;;;;0.10;0.10;;;-0.60;1.00;;;;;;5388985;26;20040;-75
2024/04/22 04:27:02;;;;;;;0.80;0.80;;;-0.60;1.00;;;;;;5396645;26;20032;-75
2024/04/22 04:29:28;;;;;;;0.65;0.65;;;-0.60;1.00;;;;;;5389658;26;20035;-80
2024/04/22 04:31:54;;;;;;;0.40;0.40;;;-0.60;1.00;;;;;;5391799;26;20031;-75
2024/04/22 04:34:20;;;;;;;0.75;0.75;;;-0.70;1.00;;;;;;5396940;26;20047;-75
2024/04/22 04:36:46;;;;;;;0.65;0.65;;;-0.70;1.00;;;;;;5392136;26;20735;-75
2024/04/22 04:39:12;;;;;;;0.43;0.38;;;-0.70;1.00;;;;;;5392097;26;20031;-75
2024/04/22 04:41:39;;;;;;;1.08;0.88;;;-0.70;1.00;;;;;;5394181;26;20036;-74
2024/04/22 04:44:05;;;;;;;0.10;0.10;;;-0.60;1.00;;;;;;5393136;26;20101;-74
2024/04/22 04:46:31;;;;;;;0.17;0.17;;;-0.60;1.00;;;;;;5392659;26;20027;-80
2024/04/22 04:48:57;;;;;;;1.13;0.43;;;-0.60;1.00;;;;;;5390087;26;20496;-75
2024/04/22 04:51:23;;;;;;;0.00;0.00;;;-0.50;1.00;;;;;;5386633;26;20036;-75
2024/04/22 04:53:49;;;;;;;0.30;0.30;;;-0.50;1.00;;;;;;5387994;26;20039;-75
2024/04/22 04:56:15;;;;;;;0.45;0.45;;;-0.50;1.00;;;;;;5393632;26;20031;-76
2024/04/22 04:58:42;;;;;;;0.35;0.35;;;-0.40;1.00;;;;;;5385261;26;20386;-75
2024/04/22 05:01:08;;;;;;;0.57;0.57;;;-0.30;1.00;;;;;;5396915;26;20043;-78
2024/04/22 05:03:34;;;;;;;0.30;0.30;;;0.10;1.00;;;;;;5393357;26;20035;-76
2024/04/22 05:06:01;;;;;;;0.73;0.57;;;0.40;1.00;;;;;;5364906;26;20036;-76
2024/04/22 05:08:28;;;;;;;0.73;0.73;;;0.80;1.00;;;;;;5387419;26;20033;-81
2024/04/22 05:10:57;;;;;;;1.55;0.98;;;1.00;99.90;;;;;;5394904;26;20048;-77
2024/04/22 05:13:24;;;;;;;0.57;0.47;;;1.10;99.90;;;;;;5391061;26;20040;-76
2024/04/22 05:15:50;;;;;;;0.10;0.10;;;1.30;99.90;;;;;;5387758;26;20567;-77
2024/04/22 05:18:16;;;;;;;1.13;0.85;;;1.30;99.90;;;;;;5397196;26;20043;-77
2024/04/22 05:20:42;;;;;;;0.55;0.55;;;1.50;99.90;;;;;;5394919;26;20036;-76
2024/04/22 05:23:08;;;;;;;0.93;0.93;;;1.60;99.90;;;;;;5392031;26;20032;-76
2024/04/22 05:25:34;;;;;;;0.10;0.10;;;1.60;99.90;;;;;;5392056;26;20032;-76
2024/04/22 05:28:00;;;;;;;1.05;0.95;;;1.90;96.70;;;;;;5391240;26;20044;-77
2024/04/22 05:30:26;;;;;;;0.50;0.50;;;1.90;61.40;;;;;;5388093;26;20036;-76
2024/04/22 05:32:53;;;;;;;0.40;0.40;;;2.00;51.50;;;;;;5387351;26;20516;-76
2024/04/22 05:38:04;;;;;;;0.30;0.30;;;2.20;22.50;;;;;;5402867;26;20040;-77
2024/04/22 05:40:30;;;;;;;3.92;0.75;;;2.60;1.00;;;;;;5399133;26;20068;-84
2024/04/22 05:42:57;;;;;;;0.60;0.60;;;2.60;1.00;;;;;;5399152;26;20036;-76
2024/04/22 05:45:23;;;;;;;0.40;0.40;;;2.60;1.00;;;;;;5398419;26;20130;-76
2024/04/22 05:47:49;;;;;;;0.65;0.65;;;2.70;1.00;;;;;;5390607;26;20045;-78
2024/04/22 05:50:15;;;;;;;0.30;0.30;;;2.80;1.00;;;;;;5391862;26;20057;-77
2024/04/22 05:52:41;;;;;;;4.85;0.90;;;2.80;1.00;;;;;;5400658;26;20377;-77
2024/04/22 05:55:08;;;;;;;0.30;0.30;;;3.00;1.00;;;;;;5395724;26;20477;-78
2024/04/22 05:57:34;;;;;;;0.20;0.20;;;3.00;1.00;;;;;;5378559;26;20031;-78
2024/04/22 06:00:01;;;;;;;0.20;0.20;;;3.30;1.00;;;;;;5402353;26;20032;-78
2024/04/22 06:02:27;;;;;;;0.70;0.60;;;3.30;99.90;;;;;;5394685;26;20032;-77
2024/04/22 06:04:53;;;;;;;0.20;0.20;;;3.40;99.90;;;;;;5400931;26;20143;-77
2024/04/22 06:07:20;;;;;;;1.90;1.23;;;3.40;99.90;;;;;;5390516;26;20044;-78
2024/04/22 06:09:46;;;;;;;1.10;0.55;;;3.60;99.90;;;;;;5402723;26;20039;-78
2024/04/22 06:12:12;;;;;;;0.20;0.20;;;3.70;99.90;;;;;;5392576;26;20039;-78
2024/04/22 06:14:38;;;;;;;0.30;0.30;;;3.70;99.90;;;;;;5401155;26;20036;-78
2024/04/22 06:17:05;;;;;;;0.10;0.10;;;3.80;99.90;;;;;;5396426;26;20024;-78
2024/04/22 06:19:31;;;;;;;0.10;0.10;;;3.80;99.90;;;;;;5392871;26;20050;-78
2024/04/22 06:21:57;;;;;;;1.05;0.95;;;4.10;99.90;;;;;;5376906;26;20056;-77
2024/04/22 06:24:23;;;;;;;0.22;0.20;;;4.10;99.90;;;;;;5393368;26;20027;-78
2024/04/22 06:26:50;;;;;;;1.40;1.30;;;4.40;99.90;;;;;;5394300;26;20276;-78
2024/04/22 06:29:16;;;;;;;0.32;0.32;;;4.50;99.90;;;;;;5400259;26;20029;-78
2024/04/22 06:31:42;;;;;;;0.75;0.68;;;4.80;99.90;;;;;;5394285;26;20040;-79
2024/04/22 06:34:08;;;;;;;0.75;0.40;;;5.20;99.90;;;;;;5398584;26;20040;-78
2024/04/22 06:36:34;;;;;;;0.60;0.60;;;5.40;91.00;;;;;;5389987;26;19999;-79
2024/04/22 06:39:00;;;;;;;0.15;0.15;;;5.60;31.90;;;;;;5382788;26;20039;-79
2024/04/22 06:41:26;;;;;;;1.45;0.28;;;5.40;18.00;;;;;;5396164;26;20040;-78
2024/04/22 06:43:53;;;;;;;0.60;0.60;;;5.30;39.20;;;;;;5390661;26;20498;-80
2024/04/22 06:46:20;;;;;;;1.58;0.60;;;5.30;3.50;;;;;;5399415;26;20035;-77
2024/04/22 06:48:47;;;;;;;0.20;0.20;;;5.20;40.30;;;;;;5396501;26;20035;-78
2024/04/22 06:51:13;;;;;;;0.10;0.10;;;5.50;92.20;;;;;;5397035;26;20036;-77
2024/04/22 06:53:40;;;;;;;0.10;0.10;;;6.00;2.00;;;;;;5404179;26;20381;-77
2024/04/22 06:56:06;;;;;;;0.17;0.17;;;5.90;1.00;;;;;;5407169;26;20029;-78
2024/04/22 06:58:32;;;;;;;0.20;0.20;;;5.80;1.00;;;;;;5390331;26;20389;-80
2024/04/22 07:00:59;;;;;;;0.80;0.80;;;5.70;1.00;;;;;;5414199;26;20051;-78
2024/04/22 07:03:25;;;;;;;0.40;0.40;;;5.90;3.40;;;;;;5399577;26;20031;-78
2024/04/22 07:05:51;;;;;;;0.40;0.40;;;6.00;1.00;;;;;;5396842;26;20239;-78
2024/04/22 07:08:18;;;;;;;0.50;0.50;;;6.30;1.00;;;;;;5402415;26;20041;-79
2024/04/22 07:10:44;;;;;;;0.20;0.20;;;6.20;1.00;;;;;;5395848;26;20614;-78
2024/04/22 07:13:10;;;;;;;0.30;0.30;;;6.50;1.00;;;;;;5393726;26;20036;-79
2024/04/22 07:15:36;;;;;;;0.85;0.85;;;6.90;1.00;;;;;;5394081;26;20041;-79
2024/04/22 07:18:03;;;;;;;0.20;0.20;;;6.70;1.00;;;;;;5392869;26;20035;-79
2024/04/22 07:20:29;;;;;;;0.65;0.65;;;6.90;1.00;;;;;;5406606;26;20028;-80
2024/04/22 07:22:55;;;;;;;0.47;0.47;;;7.10;1.00;;;;;;5407368;26;20044;-78
2024/04/22 07:25:22;;;;;;;1.15;1.05;;;7.70;1.00;;;;;;5405129;26;20036;-79
2024/04/22 07:27:48;;;;;;;1.08;0.52;;;8.00;1.00;;;;;;5398530;26;20044;-79
2024/04/22 07:30:16;;;;;;;0.25;0.20;;;8.50;99.90;;;;;;5397200;26;20041;-80
2024/04/22 07:32:43;;;;;;;0.30;0.30;;;9.00;99.90;;;;;;5393047;26;20040;-79
2024/04/22 07:35:10;;;;;;;0.25;0.25;;;9.30;99.90;;;;;;5392002;26;20048;-79
2024/04/22 07:37:43;;;;;;;0.20;0.20;;;9.20;99.90;;;;;;5393134;26;20489;-83
2024/04/22 07:40:15;;;;;;;0.68;0.30;;;9.00;99.90;;;;;;5389176;26;20382;-80
2024/04/22 07:42:46;;;;;;;0.50;0.50;;;8.50;99.90;;;;;;5394927;26;20040;-78
2024/04/22 07:45:13;;;;;;;0.43;0.43;;;8.10;99.90;;;;;;5394757;26;20032;-79
2024/04/22 07:47:43;;;;;;;0.85;0.50;;;8.40;99.90;;;;;;5407894;26;20038;-79
2024/04/22 07:50:10;;;;;;;0.20;0.20;;;8.30;99.90;;;;;;5392878;26;20044;-80
2024/04/22 07:52:37;;;;;;;0.70;0.70;;;8.20;99.90;;;;;;5390730;26;20024;-81
2024/04/22 07:55:04;;;;;;;0.30;0.30;;;8.50;99.90;;;;;;5373481;26;20048;-80
2024/04/22 07:57:31;;;;;;;0.20;0.20;;;8.30;99.90;;;;;;5393226;26;20062;-79
2024/04/22 07:59:57;;;;;;;0.20;0.20;;;8.50;99.90;;;;;;5395105;26;20028;-80
2024/04/22 08:02:24;;;;;;;0.70;0.70;;;8.60;99.90;;;;;;5395734;26;20040;-80
2024/04/22 08:04:50;;;;;;;0.73;0.73;;;8.90;99.90;;;;;;5389223;26;20035;-84
2024/04/22 08:07:20;;;;;;;0.73;0.60;;;9.20;99.90;;;;;;5393423;26;20036;-80
2024/04/22 08:09:46;;;;;;;0.40;0.40;;;9.50;99.90;;;;;;5395479;26;20045;-79
2024/04/22 08:12:13;;;;;;;0.68;0.68;;;9.30;99.90;;;;;;5398608;26;20386;-82
2024/04/22 08:14:43;;;;;;;1.08;0.52;;;9.90;99.90;;;;;;5403170;26;20031;-81
2024/04/22 08:17:09;;;;;;;0.20;0.20;;;9.80;99.90;;;;;;5391784;26;20040;-78
2024/04/22 08:19:37;;;;;;;0.10;0.10;;;9.20;99.90;;;;;;5391983;26;20036;-81
2024/04/22 08:22:04;;;;;;;0.10;0.10;;;8.80;99.90;;;;;;5392637;26;20047;-83
2024/04/22 08:24:30;;;;;;;0.30;0.30;;;9.20;99.90;;;;;;5396131;26;20031;-83
2024/04/22 08:26:56;;;;;;;0.80;0.40;;;9.90;99.90;;;;;;5394077;26;20518;-82
2024/04/22 08:29:23;;;;;;;0.43;0.43;;;10.30;99.90;;;;;;5391877;26;20057;-79
2024/04/22 08:31:49;;;;;;;0.40;0.32;;;9.50;99.90;;;;;;5405010;26;20036;-78
2024/04/22 08:34:16;;;;;;;0.35;0.35;;;9.00;99.90;;;;;;5393978;26;20036;-81
2024/04/22 08:36:42;;;;;;;0.30;0.30;;;9.30;99.90;;;;;;5391259;26;20031;-78
2024/04/22 08:39:09;;;;;;;1.00;0.82;;;9.70;99.90;;;;;;5394449;26;20039;-83
2024/04/22 08:41:38;;;;;;;0.28;0.28;;;10.10;99.90;;;;;;5389190;26;20044;-86
2024/04/22 08:44:05;;;;;;;0.77;0.70;;;10.00;99.90;;;;;;5393461;26;20028;-90
2024/04/22 08:46:31;;;;;;;0.75;0.57;;;9.70;99.90;;;;;;5364299;26;20036;-83
2024/04/22 08:48:58;;;;;;;0.20;0.20;;;9.80;99.90;;;;;;5363406;26;20039;-89
2024/04/22 08:51:25;;;;;;;0.20;0.20;;;9.50;99.90;;;;;;5378214;26;20020;-90
2024/04/22 08:53:52;;;;;;;0.30;0.30;;;9.20;99.90;;;;;;5388346;26;20484;-84
2024/04/22 08:56:24;;;;;;;0.50;0.38;;;9.00;99.90;;;;;;5399649;26;20370;-87
2024/04/22 08:58:51;;;;;;;0.47;0.47;;;9.30;99.90;;;;;;5395548;26;20035;-86
2024/04/22 09:01:17;;;;;;;2.20;0.57;;;9.50;99.90;;;;;;5379195;26;20032;-87
2024/04/22 09:03:43;;;;;;;0.30;0.20;;;10.10;99.90;;;;;;5396752;26;20036;-88
2024/04/22 09:06:10;;;;;;;1.23;0.75;;;11.50;99.90;;;;;;5384820;26;20039;-87
2024/04/22 09:08:47;;;;;;;0.32;0.32;;;12.20;99.90;;;;;;5387480;26;20502;-88
2024/04/22 09:11:17;;;;;;;0.30;0.30;;;11.60;99.90;;;;;;5379856;26;20036;-88
2024/04/22 09:13:44;;;;;;;0.63;0.63;;;11.50;99.90;;;;;;5370072;26;20053;-91
2024/04/22 09:16:17;;;;;;;2.17;0.55;;;12.20;99.90;;;;;;5402839;26;20036;-84
2024/04/22 09:18:43;;;;;;;0.35;0.30;;;11.40;99.90;;;;;;5378822;26;20035;-88
2024/04/22 09:21:10;;;;;;;0.43;0.43;;;10.00;99.90;;;;;;5388668;26;20041;-88
2024/04/22 09:23:37;;;;;;;0.38;0.38;;;9.50;99.90;;;;;;5351339;26;20036;-88
2024/04/22 09:26:04;;;;;;;0.50;0.15;;;9.40;99.90;;;;;;5373789;26;20039;-87
2024/04/22 09:28:35;;;;;;;0.20;0.20;;;9.10;99.90;;;;;;5366565;26;20040;-86
2024/04/22 09:31:04;;;;;;;0.20;0.20;;;8.90;99.90;;;;;;5371827;26;20488;-85
2024/04/22 09:33:36;;;;;;;0.10;0.10;;;8.90;99.90;;;;;;5386928;26;20028;-88
2024/04/22 09:36:04;;;;;;;0.10;0.10;;;8.80;99.90;;;;;;5363285;26;20028;-92
2024/04/22 09:38:32;;;;;;;0.63;0.50;;;8.60;99.90;;;;;;5364220;26;20028;-81
2024/04/22 09:41:06;;;;;;;0.20;0.20;;;8.40;99.90;;;;;;5378291;26;20036;-83
2024/04/22 09:43:35;;;;;;;0.60;0.57;;;8.60;99.90;;;;;;5386189;26;20036;-83
2024/04/22 09:46:05;;;;;;;0.93;0.90;;;8.60;99.90;;;;;;5390935;26;20036;-80
2024/04/22 09:48:31;;;;;;;0.75;0.75;;;8.60;99.90;;;;;;5393848;26;20112;-86
2024/04/22 09:51:00;;;;;;;1.00;0.50;;;8.60;99.90;;;;;;5412732;26;20015;-81
2024/04/22 09:53:26;;;;;;;0.25;0.25;;;8.70;99.90;;;;;;5402310;26;20020;-83
2024/04/22 09:56:01;;;;;;;0.20;0.20;;;8.80;99.90;;;;;;5411915;26;20027;-82
2024/04/22 09:58:31;;;;;;;4.50;1.67;;;9.90;99.90;;;;;;5397665;26;20035;-86
2024/04/22 10:00:57;;;;;;;2.05;0.30;;;11.20;99.90;;;;;;5375483;26;20048;-88
2024/04/22 10:03:26;;;;;;;0.30;0.30;;;12.00;99.90;;;;;;5391480;26;20037;-83
2024/04/22 10:06:02;;;;;;;0.20;0.20;;;12.40;99.90;;;;;;5398095;26;20032;-88
2024/04/22 10:08:29;;;;;;;0.40;0.20;;;12.40;99.90;;;;;;5393915;26;20032;-90
2024/04/22 10:11:08;;;;;;;0.40;0.40;;;11.10;99.90;;;;;;5390080;26;20035;-84
2024/04/22 10:13:35;;;;;;;0.20;0.20;;;10.80;99.90;;;;;;5350472;26;20035;-87
2024/04/22 10:16:02;;;;;;;0.20;0.20;;;10.20;99.90;;;;;;5366560;26;20043;-83
2024/04/22 10:18:29;;;;;;;0.35;0.35;;;9.70;99.90;;;;;;5402810;26;20386;-82
2024/04/22 10:21:05;;;;;;;0.57;0.57;;;9.60;99.90;;;;;;5395225;26;20387;-85
2024/04/22 10:23:34;;;;;;;0.35;0.35;;;9.50;99.90;;;;;;5399793;26;20040;-82
2024/04/22 10:26:00;;;;;;;0.15;0.15;;;9.60;99.90;;;;;;5363787;26;20129;-85
2024/04/22 10:28:26;;;;;;;0.15;0.15;;;9.30;99.90;;;;;;5380253;26;20492;-85
2024/04/22 10:30:58;;;;;;;0.65;0.65;;;9.30;99.90;;;;;;5402147;26;20032;-89
2024/04/22 10:33:24;;;;;;;0.28;0.28;;;9.20;99.90;;;;;;5390763;26;20031;-81
2024/04/22 10:35:50;;;;;;;0.57;0.35;;;9.10;99.90;;;;;;5354213;26;20031;-85
2024/04/22 10:38:17;;;;;;;0.20;0.20;;;9.30;99.90;;;;;;5392858;26;20556;-84
2024/04/22 10:40:43;;;;;;;0.15;0.15;;;9.60;99.90;;;;;;5401563;26;20383;-82
2024/04/22 10:43:10;;;;;;;1.00;0.93;;;10.10;99.90;;;;;;5411000;26;20023;-86
2024/04/22 10:45:36;;;;;;;0.45;0.45;;;10.60;99.90;;;;;;5400517;26;20114;-94
2024/04/22 10:48:04;;;;;;;0.20;0.20;;;10.50;99.90;;;;;;5392786;26;20044;-85
2024/04/22 10:50:30;;;;;;;0.30;0.30;;;10.10;99.90;;;;;;5398638;26;20035;-86
2024/04/22 10:52:56;;;;;;;0.10;0.10;;;9.80;99.90;;;;;;5400928;26;20036;-86
2024/04/22 10:55:23;;;;;;;0.20;0.20;;;9.30;99.90;;;;;;5378395;26;20041;-84
2024/04/22 10:57:49;;;;;;;0.10;0.10;;;9.40;99.90;;;;;;5383716;26;20048;-85
2024/04/22 11:00:15;;;;;;;0.10;0.10;;;9.20;99.90;;;;;;5372123;26;20040;-86
2024/04/22 11:02:42;;;;;;;0.17;0.17;;;9.10;99.90;;;;;;5372560;26;20032;-84
2024/04/22 11:05:08;;;;;;;0.20;0.20;;;9.00;99.90;;;;;;5394063;26;20413;-82
2024/04/22 11:07:34;;;;;;;0.10;0.10;;;9.00;99.90;;;;;;5390091;26;20372;-85
2024/04/22 11:10:02;;;;;;;0.10;0.10;;;9.00;99.90;;;;;;5389850;26;20298;-85
2024/04/22 11:12:28;;;;;;;0.10;0.10;;;9.00;99.90;;;;;;5393516;26;20040;-87
2024/04/22 11:14:56;;;;;;;0.20;0.20;;;8.90;99.90;;;;;;5366449;26;20413;-86
2024/04/22 11:17:23;;;;;;;0.10;0.10;;;8.90;99.90;;;;;;5393909;26;20032;-79
2024/04/22 11:19:50;;;;;;;0.40;0.20;;;9.30;99.90;;;;;;5366550;26;20032;-85
2024/04/22 11:22:19;;;;;;;0.25;0.25;;;9.70;99.90;;;;;;5378620;26;20032;-84
2024/04/22 11:24:46;;;;;;;0.35;0.35;;;10.20;99.90;;;;;;5390779;26;20496;-84
2024/04/22 11:27:13;;;;;;;0.25;0.25;;;10.10;99.90;;;;;;5396034;26;20036;-81
2024/04/22 11:29:40;;;;;;;0.20;0.20;;;10.10;99.90;;;;;;5372867;26;20151;-84
2024/04/22 11:32:06;;;;;;;0.43;0.43;;;9.70;99.90;;;;;;5393986;26;20040;-84
2024/04/22 11:34:33;;;;;;;0.68;0.68;;;8.90;99.90;;;;;;5375055;26;20445;-87
2024/04/22 11:37:01;;;;;;;0.10;0.10;;;8.50;99.90;;;;;;5365988;26;20371;-83
2024/04/22 11:39:28;;;;;;;0.70;0.70;;;8.20;99.90;;;;;;5369309;26;20043;-84
2024/04/22 11:41:57;;;;;;;0.52;0.52;;;7.80;99.90;;;;;;5370861;26;20040;-82
2024/04/22 11:44:24;;;;;;;0.30;0.30;;;7.70;99.90;;;;;;5398922;26;20040;-81
2024/04/22 11:46:50;;;;;;;0.30;0.30;;;7.70;99.90;;;;;;5391366;26;20039;-85
2024/04/22 11:49:16;;;;;;;0.88;0.47;;;7.60;99.90;;;;;;5388068;26;20037;-84
2024/04/22 11:51:43;;;;;;;0.20;0.20;;;7.60;99.90;;;;;;5382971;26;20027;-85
2024/04/22 11:54:09;;;;;;;0.13;0.13;;;7.80;99.90;;;;;;5377209;26;20036;-91
2024/04/22 11:56:35;;;;;;;1.45;1.30;;;7.90;99.90;;;;;;5392892;26;20036;-87
2024/04/22 11:59:03;;;;;;;0.22;0.22;;;8.00;99.90;;;;;;5360892;26;20045;-85
2024/04/22 12:01:30;;;;;;;0.10;0.10;;;8.00;99.90;;;;;;5375356;26;20505;-83
2024/04/22 12:03:57;;;;;;;0.57;0.47;;;7.90;99.90;;;;;;5374754;26;20036;-86
2024/04/22 12:06:24;;;;;;;0.20;0.20;;;8.10;99.90;;;;;;5402406;26;20036;-86
2024/04/22 12:08:50;;;;;;;0.35;0.35;;;8.40;99.90;;;;;;5398819;26;20036;-84
2024/04/22 12:11:16;;;;;;;0.30;0.30;;;8.90;99.90;;;;;;5382363;26;20032;-87
2024/04/22 12:13:43;;;;;;;0.10;0.10;;;9.50;99.90;;;;;;5381918;26;20039;-82
2024/04/22 12:16:09;;;;;;;0.30;0.30;;;9.90;99.90;;;;;;5391866;26;20031;-80
2024/04/22 12:18:35;;;;;;;0.20;0.20;;;9.90;99.90;;;;;;5406582;26;20028;-87
2024/04/22 12:21:01;;;;;;;0.13;0.13;;;9.50;99.90;;;;;;5410989;26;20479;-83
2024/04/22 12:23:28;;;;;;;0.20;0.20;;;9.60;99.90;;;;;;5406525;26;20048;-83
2024/04/22 12:25:56;;;;;;;0.55;0.47;;;9.30;99.90;;;;;;5401428;26;20028;-81
2024/04/22 12:28:22;;;;;;;0.35;0.35;;;9.30;99.90;;;;;;5369126;26;20035;-81
2024/04/22 12:30:51;;;;;;;0.95;0.82;;;9.50;99.90;;;;;;5401804;26;20048;-79
2024/04/22 12:33:17;;;;;;;5.72;0.52;;;9.20;99.90;;;;;;5388663;26;20032;-80
2024/04/22 12:35:44;;;;;;;0.40;0.40;;;9.10;99.90;;;;;;5398204;26;20035;-78
2024/04/22 12:38:10;;;;;;;0.30;0.30;;;9.50;99.90;;;;;;5365150;26;20569;-83
2024/04/22 12:40:37;;;;;;;1.48;0.30;;;9.40;99.90;;;;;;5391287;26;20036;-77
2024/04/22 12:43:03;;;;;;;1.10;0.35;;;9.40;99.90;;;;;;5394937;26;20032;-80
2024/04/22 12:45:29;;;;;;;0.20;0.20;;;9.70;99.90;;;;;;5388926;26;20370;-79
2024/04/22 12:50:44;;;;;;;2.00;0.57;;;9.90;99.90;;;;;;5377043;26;20023;-82
2024/04/22 12:53:20;;;;;;;0.20;0.20;;;9.80;99.90;;;;;;5406345;26;20040;-82
2024/04/22 12:55:46;;;;;;;0.20;0.20;;;9.90;99.90;;;;;;5387816;26;20033;-80
2024/04/22 12:58:15;;;;;;;1.17;0.47;;;9.90;99.90;;;;;;5350556;26;20032;-83
2024/04/22 13:00:41;;;;;;;0.65;0.57;;;10.00;99.90;;;;;;5387754;26;20014;-79